Portada
METAR-TAF:

METAR-TAF

Aeroports :

Udon Thani, Tailàndia

latitud: 17-23N, longitud: 102-48E, altitud: 177 m

Observació

L'informe es va fer fa 10 minuts, a les 04:00 UTC
Vent 6 kt amb direcció variable
Temperatura 29°C
Humitat 48%
Pressió 1017 hPa
Visibilitat 10 km o més
sense núvols per sota de 1500 mi sense presència de cumulonimbus.

METAR: VTUD 210400Z VRB06KT CAVOK 29/17 Q1017 NOSIG

Hora: 11:10 (04:10 UTC)

Pronòstic

L'informe es va fer fa 5 hores i 10 minuts, a les 23:00 UTC
Pronòstic vàlid del 21 a les 00 UTC al 21 a les 24 UTC
Vent 8 kt del Nord-Est
Visibilitat 10 km o més
Escasses núvols a una alçada de 2500 ft
Núvols disperses a una alçada de 8000 ft

TAF: VTUD 202300Z 2100/2124 04008KT 9999 FEW025 SCT080

Observacions i pronòstics meteorològics de més de 4000 aeroports (METAR i TAF).

Les estacions disponibles són els punts grocs i vermells al mapa.

Posi el ratolí al punt desitjat per veure el nom de l'estació.

Feu clic per veure les observacions i els pronòstics meteorològics.

Per canviar el mapa: feu clic els botons verds amb una creu de color negre per apropar; al botó verd amb un guió per allunyar la imatge; o en les fletxes verdes per a mapes adjacents.


METAR-TAF: